Delta A319 at Mexico City on Feb 15th 2022, rejected takeoff due to engine failure results in runway excursion

Last Update: February 24, 2022 / 17:48:15 GMT/Zulu time

Bookmark this article
Incident Facts

Date of incident
Feb 15, 2022

Classification
Accident

Flight number
DL-605

Aircraft Registration
N354NB

Aircraft Type
Airbus A319

ICAO Type Designator
A319

Airport ICAO Code
MMMX

A Delta Airlines Airbus A319-100, registration N354NB performing flight DL-605 from Mexico City (Mexico) to Minneapolis,MN (USA) with 101 people on board, was accelerating for takeoff from Mexico City's runway 05L when the crew rejected takeoff at about 100 knots over ground due to the right hand engine (CFM56) failure. The aircraft veered to the right, the right hand main gear and the nose gear went beyond the runway edge. The aircraft came to a stop about about 1200 meters/3700 feet down the runway. Both right hand main gear tyres received damage (punctures).

The flight was cancelled.

The aircraft is still on the ground in Mexico City on Feb 24th 2022 about 9 days after the rejected takeoff.

On Feb 24th 2022 Mexico's AIB reported the aircraft sustained substantial damage. The occurrence was rated an accident and is being investigated.

Metars:
MMMX 152356Z 18008KT 8SM SCT020CB BKN080 19/03 A3027 NOSIG RMK SLP109 57002 955 8/360 HZY DSNT PCPN N E W=
MMMX 152247Z 18011KT 7SM BKN020TCU BKN080 20/04 A3027 NOSIG RMK 8/230 HZY=
MMMX 152141Z 18011KT 7SM BKN020TCU BKN080 21/04 A3026 NOSIG RMK 8/230 HZY=
MMMX 152055Z 08006KT 7SM SCT020 22/02 A3028 NOSIG RMK SLP099 57037 901 8/200 HZY DSNT TCU E SE S=
MMMX 151945Z 34003KT 7SM SCT020 22/02 A3033 NOSIG RMK 8/200 HZY=
MMMX 151920Z 36004KT 6SM SCT020 22/02 A3035 NOSIG RMK 8/200 HZY=
MMMX 151856Z 30004KT 6SM FEW020 19/03 A3037 NOSIG RMK 8/200 HZY=
MMMX 151742Z 12003KT 6SM FEW020 18/05 A3041 NOSIG RMK SLP155 57003 908 8/200 HZY=
Aircraft Registration Data
Registration mark
N354NB
Country of Registration
United States
Date of Registration
MpggnAcehph lg ie Subscribe to unlock
TCDS Ident. No.
Manufacturer
AIRBUS
Aircraft Model / Type
A319-114
Number of Seats
ICAO Aircraft Type
A319
Year of Manufacture
Serial Number
Aircraft Address / Mode S Code (HEX)
Engine Count
Engine Manufacturer
Engine Model
Kjhkdlfg jnk Subscribe to unlock
Engine Type
Main Owner
Mkjnikklgbgcneqgdmeqlfhjchcfjg hq bhAq mqbmpjfjAAbAnhqg mcfgAeili nkcdAefAebeelcAnAfpAfpiAi mkmjipgenefemgkfcpgAn AA Subscribe to unlock
Incident Facts

Date of incident
Feb 15, 2022

Classification
Accident

Flight number
DL-605

Aircraft Registration
N354NB

Aircraft Type
Airbus A319

ICAO Type Designator
A319

Airport ICAO Code
MMMX

This article is published under license from Avherald.com. © of text by Avherald.com.
Article source

You can read 2 more free articles without a subscription.

Subscribe now and continue reading without any limits!

Are you a subscriber? Login
Subscribe

Read unlimited articles and receive our daily update briefing. Gain better insights into what is happening in commercial aviation safety.

Free newsletter

Want to know more and stay ahead? Get our free weekly newsletter and join 5384 existing subscribers.

By subscribing, you accept our terms and conditions and confirm that you've read our privacy policy.

Send tip

Support AeroInside by sending a small tip amount.

Related articles

Newest articles

Subscribe today

Are you researching aviation incidents? Get access to AeroInside Insights, unlimited read access and receive the daily newsletter.

Pick your plan and subscribe

Partner

Blockaviation logo

A new way to document and demonstrate airworthiness compliance and aircraft value. Find out more.

Virtual Speech logo

ELITE Simulation Solutions is a leading global provider of Flight Simulation Training Devices, IFR training software as well as flight controls and related services. Find out more.

Get updates

Never miss an article from AeroInside. Subscribe to our free weekly newsletter and join 5384 existing subscribers.

By subscribing, you accept our terms and conditions and that you've read our privacy policy.

AeroInside Blog
Popular aircraft
Airbus A320
Boeing 737-800
Boeing 737-800 MAX
Popular airlines
American Airlines
United
Delta
Air Canada
Lufthansa
British Airways